< < Back
Terminal Aerodrome Forecast


Current Version              Previous Versions:   1  2  3  4  5  6  7  8  9  

Terminal Aerodrome Forecast

522
FTUS44 KMRX 280320 AAA
TAFCHA
TAF AMD
KCHA 280320Z 2803/2824 32009KT P6SM BKN035
     FM280800 VRB04KT P6SM SKC=



Latest METAR

495
SAUS80 KWBC 280800 RRB
MTRCHA
METAR KCHA 280753Z AUTO 35006KT 10SM OVC030 M01/M06 A3042 RMK AO2 SLP306
T10061061


USA.gov is the U.S. government's official web portal to all federal, state and local government web resources and services.